createdAt,value
2023-04-08T00:00:25.928Z,51.325741
2023-04-08T00:01:25.903Z,51.325748
2023-04-08T00:02:26.020Z,51.325775
2023-04-08T00:03:25.962Z,51.325741
2023-04-08T00:04:26.028Z,51.325726
2023-04-08T00:05:25.868Z,51.325737
2023-04-08T00:06:25.988Z,51.325760
2023-04-08T00:07:25.868Z,51.325771
2023-04-08T00:08:25.799Z,51.325775
2023-04-08T00:09:25.775Z,51.325787
2023-04-08T00:10:25.757Z,51.325741
2023-04-08T00:11:25.797Z,51.325729
2023-04-08T00:12:25.763Z,51.325706
2023-04-08T00:13:25.712Z,51.325729
2023-04-08T00:14:25.679Z,51.325714
2023-04-08T00:15:25.669Z,51.325760
2023-04-08T00:16:25.673Z,51.325836
2023-04-08T00:17:25.711Z,51.325756
2023-04-08T00:18:25.618Z,51.325790
2023-04-08T00:19:25.605Z,51.325768
2023-04-08T00:20:25.578Z,51.325775
2023-04-08T00:21:25.616Z,51.325764
2023-04-08T00:22:25.585Z,51.325779
2023-04-08T00:23:25.549Z,51.325745
2023-04-08T00:24:25.528Z,51.325737
2023-04-08T00:25:25.826Z,51.325771
2023-04-08T00:26:26.509Z,51.325783
2023-04-08T00:27:25.621Z,51.325752
2023-04-08T00:28:25.451Z,51.325722
2023-04-08T00:29:25.429Z,51.325729
2023-04-08T00:30:25.429Z,51.325665
2023-04-08T00:31:25.420Z,51.325657
2023-04-08T00:32:25.430Z,51.325676
2023-04-08T00:33:25.353Z,51.325714
2023-04-08T00:34:25.349Z,51.325722
2023-04-08T00:35:25.385Z,51.325718
2023-04-08T00:36:25.352Z,51.325714
2023-04-08T00:37:25.320Z,51.325699
2023-04-08T00:38:25.287Z,51.325691
2023-04-08T00:39:25.257Z,51.325706
2023-04-08T00:40:25.238Z,51.325672
2023-04-08T00:41:25.240Z,51.325649
2023-04-08T00:42:25.213Z,51.325657
2023-04-08T00:43:25.232Z,51.325718
2023-04-08T00:44:25.228Z,51.325718
2023-04-08T00:45:25.166Z,51.325718
2023-04-08T00:46:25.193Z,51.325771
2023-04-08T00:47:25.174Z,51.325745
2023-04-08T00:48:25.141Z,51.325764
2023-04-08T00:49:25.090Z,51.325764
2023-04-08T00:50:25.062Z,51.325741
2023-04-08T00:51:25.053Z,51.325760
2023-04-08T00:52:25.033Z,51.325794
2023-04-08T00:53:25.734Z,51.325760
2023-04-08T00:54:25.013Z,51.325752
2023-04-08T00:55:24.983Z,51.325737
2023-04-08T00:56:24.974Z,51.325706
2023-04-08T00:57:24.945Z,51.325687
2023-04-08T00:58:24.952Z,51.325710
2023-04-08T00:59:24.914Z,51.325623
2023-04-08T01:00:24.903Z,51.325729
2023-04-08T01:01:24.930Z,51.325737
2023-04-08T01:02:25.092Z,51.325737
2023-04-08T01:03:25.172Z,51.325718
2023-04-08T01:04:24.998Z,51.325722
2023-04-08T01:05:24.812Z,51.325703
2023-04-08T01:06:24.795Z,51.325718
2023-04-08T01:07:24.773Z,51.325752
2023-04-08T01:08:24.810Z,51.325729
2023-04-08T01:09:24.758Z,51.325752
2023-04-08T01:10:24.725Z,51.325726
2023-04-08T01:11:24.743Z,51.325706
2023-04-08T01:12:25.700Z,51.325718
2023-04-08T01:13:24.713Z,51.325706
2023-04-08T01:14:24.655Z,51.325748
2023-04-08T01:15:24.649Z,51.325699
2023-04-08T01:16:24.694Z,51.325676
2023-04-08T01:17:24.661Z,51.325634
2023-04-08T01:18:24.673Z,51.325699
2023-04-08T01:19:25.587Z,51.325684
2023-04-08T01:20:24.569Z,51.325695
2023-04-08T01:21:24.569Z,51.325668
2023-04-08T01:22:24.549Z,51.325695
2023-04-08T01:23:24.565Z,51.325703
2023-04-08T01:24:24.522Z,51.325615
2023-04-08T01:25:24.483Z,51.325649
2023-04-08T01:26:24.473Z,51.325603
2023-04-08T01:27:24.446Z,51.325649
2023-04-08T01:28:24.456Z,51.325741
2023-04-08T01:29:24.411Z,51.325726
2023-04-08T01:30:24.399Z,51.325684
2023-04-08T01:31:24.456Z,51.325684
2023-04-08T01:32:24.391Z,51.325783
2023-04-08T01:33:24.373Z,51.325813
2023-04-08T01:34:24.350Z,51.325825
2023-04-08T01:35:24.355Z,51.325809
2023-04-08T01:36:24.300Z,51.325798
2023-04-08T01:37:24.283Z,51.325718
2023-04-08T01:38:24.302Z,51.325687
2023-04-08T01:39:24.250Z,51.325733
2023-04-08T01:40:24.238Z,51.325771
2023-04-08T01:41:24.226Z,51.325733
2023-04-08T01:42:24.201Z,51.325672
2023-04-08T01:43:24.230Z,51.325634
2023-04-08T01:44:24.173Z,51.325676
2023-04-08T01:45:24.189Z,51.325684
2023-04-08T01:46:24.202Z,51.325729
2023-04-08T01:47:24.118Z,51.325699
2023-04-08T01:48:24.115Z,51.325676
2023-04-08T01:49:24.082Z,51.325745
2023-04-08T01:50:24.078Z,51.325733
2023-04-08T01:51:24.049Z,51.325588
2023-04-08T01:52:24.016Z,51.325619
2023-04-08T01:53:25.031Z,51.325699
2023-04-08T01:54:24.986Z,51.325676
2023-04-08T01:55:23.972Z,51.325569
2023-04-08T01:56:23.957Z,51.325649
2023-04-08T01:57:23.940Z,51.325581
2023-04-08T01:58:23.993Z,51.325596
2023-04-08T01:59:23.912Z,51.325726
2023-04-08T02:00:23.919Z,51.325771
2023-04-08T02:01:23.902Z,51.325855
2023-04-08T02:02:24.047Z,51.325779
2023-04-08T02:03:24.142Z,51.325718
2023-04-08T02:04:23.903Z,51.325634
2023-04-08T02:05:23.797Z,51.325661
2023-04-08T02:06:23.782Z,51.325966
2023-04-08T02:07:23.764Z,51.326183
2023-04-08T02:08:23.789Z,51.325928
2023-04-08T02:09:23.736Z,51.325626
2023-04-08T02:10:23.721Z,51.325581
2023-04-08T02:11:23.706Z,51.325531
2023-04-08T02:12:23.677Z,51.325748
2023-04-08T02:13:23.696Z,51.325836
2023-04-08T02:14:23.650Z,51.325825
2023-04-08T02:15:23.630Z,51.325874
2023-04-08T02:16:23.762Z,51.325886
2023-04-08T02:17:23.593Z,51.325878
2023-04-08T02:18:23.623Z,51.325886
2023-04-08T02:19:23.577Z,51.325855
2023-04-08T02:20:23.550Z,51.325802
2023-04-08T02:21:23.527Z,51.325855
2023-04-08T02:22:23.506Z,51.325829
2023-04-08T02:23:23.547Z,51.325779
2023-04-08T02:24:23.482Z,51.325794
2023-04-08T02:25:23.462Z,51.325764
2023-04-08T02:26:23.451Z,51.325779
2023-04-08T02:27:23.422Z,51.325768
2023-04-08T02:28:23.435Z,51.325821
2023-04-08T02:29:23.380Z,51.325821
2023-04-08T02:30:23.487Z,51.325844
2023-04-08T02:31:23.384Z,51.325851
2023-04-08T02:32:23.349Z,51.325825
2023-04-08T02:33:23.389Z,51.325802
2023-04-08T02:34:23.316Z,51.325756
2023-04-08T02:35:23.327Z,51.325806
2023-04-08T02:36:23.263Z,51.325798
2023-04-08T02:37:23.243Z,51.325787
2023-04-08T02:38:23.277Z,51.325775
2023-04-08T02:39:23.211Z,51.325794
2023-04-08T02:40:23.208Z,51.325794
2023-04-08T02:41:23.185Z,51.325809
2023-04-08T02:42:23.158Z,51.325817
2023-04-08T02:43:23.183Z,51.325787
2023-04-08T02:44:23.142Z,51.325798
2023-04-08T02:45:23.121Z,51.325806
2023-04-08T02:46:23.174Z,51.325779
2023-04-08T02:47:23.132Z,51.325787
2023-04-08T02:48:23.102Z,51.325787
2023-04-08T02:49:23.059Z,51.325809
2023-04-08T02:50:23.026Z,51.325813
2023-04-08T02:51:23.017Z,51.325802
2023-04-08T02:52:23.012Z,51.325802
2023-04-08T02:53:23.001Z,51.325806
2023-04-08T02:54:22.959Z,51.325779
2023-04-08T02:55:22.951Z,51.325787
2023-04-08T02:56:22.945Z,51.325779
2023-04-08T02:57:22.927Z,51.325768
2023-04-08T02:58:22.934Z,51.325802
2023-04-08T02:59:22.896Z,51.325809
2023-04-08T03:00:22.897Z,51.325806
2023-04-08T03:01:22.919Z,51.325794
2023-04-08T03:02:22.998Z,51.325829
2023-04-08T03:03:22.961Z,51.325825
2023-04-08T03:04:22.792Z,51.325859
2023-04-08T03:05:22.757Z,51.325844
2023-04-08T03:06:22.788Z,51.325806
2023-04-08T03:07:22.744Z,51.325809
2023-04-08T03:08:22.749Z,51.325790
2023-04-08T03:09:22.693Z,51.325802
2023-04-08T03:10:22.678Z,51.325798
2023-04-08T03:11:22.680Z,51.325790
2023-04-08T03:12:22.656Z,51.325809
2023-04-08T03:13:22.666Z,51.325821
2023-04-08T03:14:22.647Z,51.325825
2023-04-08T03:15:22.597Z,51.325813
2023-04-08T03:16:22.645Z,51.325806
2023-04-08T03:17:22.627Z,51.325817
2023-04-08T03:18:22.605Z,51.325745
2023-04-08T03:19:22.537Z,51.325745
2023-04-08T03:20:22.515Z,51.325756
2023-04-08T03:21:22.496Z,51.325741
2023-04-08T03:22:23.481Z,51.325745
2023-04-08T03:23:22.488Z,51.325733
2023-04-08T03:24:22.452Z,51.325745
2023-04-08T03:25:22.437Z,51.325802
2023-04-08T03:26:22.402Z,51.325790
2023-04-08T03:27:22.417Z,51.325844
2023-04-08T03:28:22.405Z,51.325794
2023-04-08T03:29:22.353Z,51.325764
2023-04-08T03:30:22.348Z,51.325829
2023-04-08T03:31:22.357Z,51.325844
2023-04-08T03:32:22.357Z,51.325832
2023-04-08T03:33:22.321Z,51.325787
2023-04-08T03:34:22.278Z,51.325821
2023-04-08T03:35:22.259Z,51.325806
2023-04-08T03:36:22.264Z,51.325832
2023-04-08T03:37:22.219Z,51.325787
2023-04-08T03:38:22.250Z,51.325710
2023-04-08T03:39:22.183Z,51.325748
2023-04-08T03:40:22.168Z,51.325783
2023-04-08T03:41:22.162Z,51.325790
2023-04-08T03:42:22.126Z,51.325752
2023-04-08T03:43:22.174Z,51.325741
2023-04-08T03:44:22.107Z,51.325794
2023-04-08T03:45:22.076Z,51.325802
2023-04-08T03:46:22.082Z,51.325836
2023-04-08T03:47:22.092Z,51.325756
2023-04-08T03:48:22.079Z,51.325760
2023-04-08T03:49:53.886Z,51.325779
2023-04-08T03:50:21.988Z,51.325787
2023-04-08T03:51:22.003Z,51.325794
2023-04-08T03:52:21.964Z,51.325802
2023-04-08T03:53:21.978Z,51.325809
2023-04-08T03:54:22.048Z,51.325768
2023-04-08T03:55:21.936Z,51.325771
2023-04-08T03:56:21.925Z,51.325783
2023-04-08T03:57:21.878Z,51.325775
2023-04-08T03:58:21.890Z,51.325768
2023-04-08T03:59:21.837Z,51.325729
2023-04-08T04:00:21.845Z,51.325775
2023-04-08T04:01:21.806Z,51.325787
2023-04-08T04:02:21.909Z,51.325794
2023-04-08T04:03:21.974Z,51.325798
2023-04-08T04:04:21.957Z,51.325821
2023-04-08T04:05:21.737Z,51.325813
2023-04-08T04:06:21.726Z,51.325802
2023-04-08T04:07:21.723Z,51.325745
2023-04-08T04:08:21.713Z,51.325706
2023-04-08T04:09:21.667Z,51.325657
2023-04-08T04:10:21.846Z,51.325718
2023-04-08T04:11:21.654Z,51.325722
2023-04-08T04:12:21.640Z,51.325722
2023-04-08T04:13:21.596Z,51.325783
2023-04-08T04:14:21.633Z,51.325768
2023-04-08T04:15:21.565Z,51.325764
2023-04-08T04:16:21.646Z,51.325737
2023-04-08T04:17:21.554Z,51.325741
2023-04-08T04:18:21.578Z,51.325733
2023-04-08T04:19:21.500Z,51.325729
2023-04-08T04:20:21.478Z,51.325718
2023-04-08T04:21:21.469Z,51.325691
2023-04-08T04:22:21.448Z,51.325722
2023-04-08T04:23:21.446Z,51.325737
2023-04-08T04:24:21.436Z,51.325745
2023-04-08T04:25:21.391Z,51.325745
2023-04-08T04:26:21.379Z,51.325748
2023-04-08T04:27:21.396Z,51.325756
2023-04-08T04:28:21.351Z,51.325741
2023-04-08T04:29:21.376Z,51.325710
2023-04-08T04:30:21.316Z,51.325695
2023-04-08T04:31:21.291Z,51.325695
2023-04-08T04:32:21.302Z,51.325726
2023-04-08T04:33:21.254Z,51.325718
2023-04-08T04:34:21.279Z,51.325768
2023-04-08T04:35:21.295Z,51.325768
2023-04-08T04:36:21.422Z,51.325737
2023-04-08T04:37:21.190Z,51.325714
2023-04-08T04:38:21.168Z,51.325726
2023-04-08T04:39:21.187Z,51.325764
2023-04-08T04:40:21.137Z,51.325756
2023-04-08T04:41:21.136Z,51.325714
2023-04-08T04:42:21.105Z,51.325729
2023-04-08T04:43:21.122Z,51.325756
2023-04-08T04:44:21.110Z,51.325752
2023-04-08T04:45:21.063Z,51.325764
2023-04-08T04:46:21.060Z,51.325718
2023-04-08T04:47:21.041Z,51.325741
2023-04-08T04:48:21.001Z,51.325733
2023-04-08T04:49:21.014Z,51.325756
2023-04-08T04:50:20.981Z,51.325745
2023-04-08T04:51:20.949Z,51.325745
2023-04-08T04:52:20.940Z,51.325729
2023-04-08T04:53:20.916Z,51.325714
2023-04-08T04:54:20.924Z,51.325726
2023-04-08T04:55:20.880Z,51.325733
2023-04-08T04:56:20.865Z,51.325733
2023-04-08T04:57:20.852Z,51.325760
2023-04-08T04:58:20.838Z,51.325741
2023-04-08T04:59:21.852Z,51.325741
2023-04-08T05:00:20.829Z,51.325748
2023-04-08T05:01:20.790Z,51.325726
2023-04-08T05:02:20.832Z,51.325733
2023-04-08T05:03:20.756Z,51.325771
2023-04-08T05:04:20.761Z,51.325752
2023-04-08T05:05:20.811Z,51.325714
2023-04-08T05:06:20.718Z,51.325691
2023-04-08T05:07:20.690Z,51.325718
2023-04-08T05:08:20.675Z,51.325745
2023-04-08T05:09:20.717Z,51.325760
2023-04-08T05:10:20.645Z,51.325745
2023-04-08T05:11:20.629Z,51.325756
2023-04-08T05:12:20.674Z,51.325771
2023-04-08T05:13:20.597Z,51.325722
2023-04-08T05:14:20.604Z,51.325718
2023-04-08T05:15:20.567Z,51.325737
2023-04-08T05:16:20.580Z,51.325756
2023-04-08T05:17:20.526Z,51.325756
2023-04-08T05:18:20.500Z,51.325726
2023-04-08T05:19:20.516Z,51.325737
2023-04-08T05:20:20.478Z,51.325752
2023-04-08T05:21:20.447Z,51.325741
2023-04-08T05:22:20.440Z,51.325760
2023-04-08T05:23:20.422Z,51.325787
2023-04-08T05:24:20.496Z,51.325790
2023-04-08T05:25:20.388Z,51.325764
2023-04-08T05:26:20.436Z,51.325714
2023-04-08T05:27:20.354Z,51.325745
2023-04-08T05:28:20.374Z,51.325733
2023-04-08T05:29:20.389Z,51.325775
2023-04-08T05:30:20.306Z,51.325790
2023-04-08T05:31:20.311Z,51.325779
2023-04-08T05:32:20.295Z,51.325764
2023-04-08T05:33:20.267Z,51.325768
2023-04-08T05:34:20.267Z,51.325741
2023-04-08T05:35:20.238Z,51.325737
2023-04-08T05:36:20.198Z,51.325756
2023-04-08T05:37:20.192Z,51.325764
2023-04-08T05:38:20.166Z,51.325787
2023-04-08T05:39:20.179Z,51.325764
2023-04-08T05:40:20.147Z,51.325726
2023-04-08T05:41:20.125Z,51.325733
2023-04-08T05:42:20.102Z,51.325783
2023-04-08T05:43:20.092Z,51.325798
2023-04-08T05:44:20.106Z,51.325752
2023-04-08T05:45:20.076Z,51.325745
2023-04-08T05:46:20.100Z,51.325722
2023-04-08T05:47:20.039Z,51.325722
2023-04-08T05:48:20.015Z,51.325714
2023-04-08T05:49:20.029Z,51.325710
2023-04-08T05:50:19.989Z,51.325737
2023-04-08T05:51:19.948Z,51.325737
2023-04-08T05:52:19.945Z,51.325714
2023-04-08T05:53:19.929Z,51.325737
2023-04-08T05:54:19.933Z,51.325722
2023-04-08T05:55:19.885Z,51.325737
2023-04-08T05:56:19.872Z,51.325737
2023-04-08T05:57:19.846Z,51.325726
2023-04-08T05:58:19.838Z,51.325699
2023-04-08T05:59:19.858Z,51.325695
2023-04-08T06:00:19.821Z,51.325710
2023-04-08T06:01:19.773Z,51.325691
2023-04-08T06:02:19.858Z,51.325703
2023-04-08T06:03:20.908Z,51.325726
2023-04-08T06:04:20.852Z,51.325722
2023-04-08T06:05:19.721Z,51.325714
2023-04-08T06:06:19.705Z,51.325714
2023-04-08T06:07:19.693Z,51.325714
2023-04-08T06:08:19.672Z,51.325684
2023-04-08T06:09:19.687Z,51.325687
2023-04-08T06:10:19.625Z,51.325718
2023-04-08T06:11:19.885Z,51.325710
2023-04-08T06:12:19.584Z,51.325699
2023-04-08T06:13:19.570Z,51.325687
2023-04-08T06:14:19.576Z,51.325699
2023-04-08T06:15:19.537Z,51.325714
2023-04-08T06:16:21.088Z,51.325703
2023-04-08T06:17:20.716Z,51.325695
2023-04-08T06:18:19.494Z,51.325691
2023-04-08T06:19:19.560Z,51.325726
2023-04-08T06:20:19.464Z,51.325729
2023-04-08T06:21:19.429Z,51.325741
2023-04-08T06:22:19.443Z,51.325733
2023-04-08T06:23:19.430Z,51.325726
2023-04-08T06:24:19.440Z,51.325718
2023-04-08T06:25:19.371Z,51.325748
2023-04-08T06:26:19.412Z,51.325729
2023-04-08T06:27:19.392Z,51.325741
2023-04-08T06:28:19.345Z,51.325726
2023-04-08T06:29:20.323Z,51.325745
2023-04-08T06:30:19.283Z,51.325748
2023-04-08T06:31:19.320Z,51.325779
2023-04-08T06:32:19.330Z,51.325741
2023-04-08T06:33:19.250Z,51.325756
2023-04-08T06:34:19.264Z,51.325741
2023-04-08T06:35:19.243Z,51.325752
2023-04-08T06:36:19.196Z,51.325779
2023-04-08T06:37:19.168Z,51.325764
2023-04-08T06:38:19.144Z,51.325752
2023-04-08T06:39:19.132Z,51.325809
2023-04-08T06:40:19.144Z,51.325794
2023-04-08T06:41:19.096Z,51.325718
2023-04-08T06:42:19.899Z,51.325722
2023-04-08T06:43:19.056Z,51.325722
2023-04-08T06:44:19.087Z,51.325718
2023-04-08T06:45:19.059Z,51.325760
2023-04-08T06:46:19.092Z,51.325760
2023-04-08T06:47:18.987Z,51.325653
2023-04-08T06:48:18.965Z,51.325710
2023-04-08T06:49:18.961Z,51.325745
2023-04-08T06:50:18.974Z,51.325764
2023-04-08T06:51:18.932Z,51.325748
2023-04-08T06:52:18.934Z,51.325787
2023-04-08T06:53:19.920Z,51.325768
2023-04-08T06:54:18.894Z,51.325771
2023-04-08T06:55:18.886Z,51.325771
2023-04-08T06:56:18.839Z,51.325775
2023-04-08T06:57:18.817Z,51.325745
2023-04-08T06:58:18.910Z,51.325775
2023-04-08T06:59:18.784Z,51.325806
2023-04-08T07:00:18.811Z,51.325748
2023-04-08T07:01:18.806Z,51.325745
2023-04-08T07:02:18.828Z,51.325783
2023-04-08T07:03:18.795Z,51.325798
2023-04-08T07:04:18.833Z,51.325771
2023-04-08T07:05:18.725Z,51.325783
2023-04-08T07:06:18.681Z,51.325752
2023-04-08T07:07:18.670Z,51.325706
2023-04-08T07:08:18.650Z,51.325726
2023-04-08T07:09:18.622Z,51.325745
2023-04-08T07:10:18.643Z,51.325756
2023-04-08T07:11:18.599Z,51.325699
2023-04-08T07:12:18.671Z,51.325672
2023-04-08T07:13:18.566Z,51.325737
2023-04-08T07:14:18.539Z,51.325726
2023-04-08T07:15:18.548Z,51.325653
2023-04-08T07:16:18.570Z,51.325676
2023-04-08T07:17:18.481Z,51.325687
2023-04-08T07:18:18.482Z,51.325726
2023-04-08T07:19:18.459Z,51.325764
2023-04-08T07:20:18.476Z,51.325729
2023-04-08T07:21:18.420Z,51.325714
2023-04-08T07:22:18.458Z,51.325691
2023-04-08T07:23:18.386Z,51.325668
2023-04-08T07:24:18.372Z,51.325703
2023-04-08T07:25:18.380Z,51.325726
2023-04-08T07:26:18.337Z,51.325642
2023-04-08T07:27:19.317Z,51.325676
2023-04-08T07:28:18.298Z,51.325706
2023-04-08T07:29:18.358Z,51.325703
2023-04-08T07:30:18.307Z,51.325722
2023-04-08T07:31:18.286Z,51.325714
2023-04-08T07:32:18.232Z,51.325775
2023-04-08T07:33:18.240Z,51.325718
2023-04-08T07:34:18.198Z,51.325737
2023-04-08T07:35:18.264Z,51.325726
2023-04-08T07:36:18.151Z,51.325722
2023-04-08T07:37:18.162Z,51.325726
2023-04-08T07:38:18.126Z,51.325733
2023-04-08T07:39:18.131Z,51.325699
2023-04-08T07:40:18.123Z,51.325729
2023-04-08T07:41:18.077Z,51.325741
2023-04-08T07:42:18.046Z,51.325752
2023-04-08T07:43:18.047Z,51.325813
2023-04-08T07:44:18.025Z,51.325752
2023-04-08T07:45:18.030Z,51.325771
2023-04-08T07:46:18.005Z,51.325718
2023-04-08T07:47:17.976Z,51.325748
2023-04-08T07:48:17.963Z,51.325752
2023-04-08T07:49:17.993Z,51.325768
2023-04-08T07:50:17.950Z,51.325752
2023-04-08T07:51:17.913Z,51.325733
2023-04-08T07:52:17.900Z,51.325748
2023-04-08T07:53:17.877Z,51.325718
2023-04-08T07:54:17.875Z,51.325680
2023-04-08T07:55:17.880Z,51.325619
2023-04-08T07:56:17.832Z,51.325691
2023-04-08T07:57:17.807Z,51.325741
2023-04-08T07:58:17.788Z,51.325756
2023-04-08T07:59:17.762Z,51.325745
2023-04-08T08:00:18.043Z,51.325745
2023-04-08T08:01:17.755Z,51.325718
2023-04-08T08:02:17.853Z,51.325695
2023-04-08T08:03:17.782Z,51.325668
2023-04-08T08:04:17.789Z,51.325687
2023-04-08T08:05:17.791Z,51.325714
2023-04-08T08:06:17.684Z,51.325680
2023-04-08T08:07:17.648Z,51.325699
2023-04-08T08:08:17.634Z,51.325695
2023-04-08T08:09:17.615Z,51.325710
2023-04-08T08:10:17.617Z,51.325748
2023-04-08T08:11:17.577Z,51.325748
2023-04-08T08:12:17.564Z,51.325756
2023-04-08T08:13:17.541Z,51.325771
2023-04-08T08:14:17.527Z,51.325783
2023-04-08T08:15:17.547Z,51.325752
2023-04-08T08:16:17.536Z,51.325745
2023-04-08T08:17:17.471Z,51.325733
2023-04-08T08:18:17.490Z,51.325733
2023-04-08T08:19:17.440Z,51.325745
2023-04-08T08:20:17.453Z,51.325783
2023-04-08T08:21:17.437Z,51.325848
2023-04-08T08:22:17.395Z,51.325764
2023-04-08T08:23:17.367Z,51.325741
2023-04-08T08:24:17.351Z,51.325657
2023-04-08T08:25:17.364Z,51.325680
2023-04-08T08:26:17.332Z,51.325733
2023-04-08T08:27:17.300Z,51.325703
2023-04-08T08:28:17.300Z,51.325718
2023-04-08T08:29:17.257Z,51.325729
2023-04-08T08:30:17.299Z,51.325722
2023-04-08T08:31:17.262Z,51.325733
2023-04-08T08:32:17.218Z,51.325726
2023-04-08T08:33:17.209Z,51.325741
2023-04-08T08:34:17.191Z,51.325741
2023-04-08T08:35:17.199Z,51.325733
2023-04-08T08:36:17.220Z,51.325729
2023-04-08T08:37:17.151Z,51.325706
2023-04-08T08:38:17.183Z,51.325733
2023-04-08T08:39:17.102Z,51.325729
2023-04-08T08:40:17.118Z,51.325718
2023-04-08T08:41:17.068Z,51.325722
2023-04-08T08:42:17.085Z,51.325733
2023-04-08T08:43:17.030Z,51.325718
2023-04-08T08:44:17.025Z,51.325714
2023-04-08T08:45:17.032Z,51.325733
2023-04-08T08:46:17.036Z,51.325756
2023-04-08T08:47:16.968Z,51.325748
2023-04-08T08:48:16.948Z,51.325714
2023-04-08T08:49:16.941Z,51.325794
2023-04-08T08:50:16.948Z,51.325691
2023-04-08T08:51:16.893Z,51.325691
2023-04-08T08:52:16.880Z,51.325775
2023-04-08T08:53:16.851Z,51.325798
2023-04-08T08:54:16.839Z,51.325710
2023-04-08T08:55:36.264Z,51.325703
2023-04-08T08:56:19.226Z,51.325710
2023-04-08T08:57:16.832Z,51.325756
2023-04-08T08:58:16.766Z,51.325745
2023-04-08T08:59:16.747Z,51.325714
2023-04-08T09:00:16.780Z,51.325714
2023-04-08T09:01:16.716Z,51.325699
2023-04-08T09:02:16.771Z,51.325722
2023-04-08T09:03:17.042Z,51.325718
2023-04-08T09:04:17.079Z,51.325638
2023-04-08T09:05:17.015Z,51.325771
2023-04-08T09:06:16.630Z,51.325768
2023-04-08T09:07:16.622Z,51.325722
2023-04-08T09:08:16.670Z,51.325802
2023-04-08T09:09:16.586Z,51.325813
2023-04-08T09:10:16.603Z,51.325729
2023-04-08T09:11:16.625Z,51.325695
2023-04-08T09:12:18.019Z,51.325680
2023-04-08T09:13:17.521Z,51.325729
2023-04-08T09:14:16.491Z,51.325771
2023-04-08T09:15:16.516Z,51.325756
2023-04-08T09:16:16.537Z,51.325787
2023-04-08T09:17:16.436Z,51.325798
2023-04-08T09:18:17.849Z,51.325783
2023-04-08T09:19:16.403Z,51.325752
2023-04-08T09:20:16.421Z,51.325775
2023-04-08T09:21:16.368Z,51.325790
2023-04-08T09:22:16.371Z,51.325798
2023-04-08T09:23:16.333Z,51.325798
2023-04-08T09:24:17.840Z,51.325802
2023-04-08T09:25:17.334Z,51.325771
2023-04-08T09:26:16.378Z,51.325764
2023-04-08T09:27:16.270Z,51.325760
2023-04-08T09:28:16.259Z,51.325733
2023-04-08T09:29:25.961Z,51.325748
2023-04-08T09:30:18.266Z,51.325760
2023-04-08T09:31:16.224Z,51.325768
2023-04-08T09:32:16.198Z,51.325760
2023-04-08T09:33:16.176Z,51.325706
2023-04-08T09:34:16.149Z,51.325703
2023-04-08T09:35:16.186Z,51.325745
2023-04-08T09:36:16.138Z,51.325871
2023-04-08T09:37:16.122Z,51.325771
2023-04-08T09:38:17.096Z,51.325706
2023-04-08T09:39:16.100Z,51.325798
2023-04-08T09:40:16.052Z,51.325825
2023-04-08T09:41:16.067Z,51.325729
2023-04-08T09:42:16.045Z,51.325676
2023-04-08T09:43:16.001Z,51.325764
2023-04-08T09:44:16.001Z,51.325787
2023-04-08T09:45:16.025Z,51.325821
2023-04-08T09:46:16.169Z,51.325745
2023-04-08T09:47:15.938Z,51.325733
2023-04-08T09:48:16.610Z,51.325722
2023-04-08T09:49:16.924Z,51.325771
2023-04-08T09:50:15.904Z,51.325775
2023-04-08T09:51:49.476Z,51.325882
2023-04-08T09:52:15.915Z,51.325844
2023-04-08T09:53:15.834Z,51.325787
2023-04-08T09:54:15.829Z,51.325783
2023-04-08T09:55:15.812Z,51.325760
2023-04-08T09:56:15.824Z,51.325768
2023-04-08T09:57:15.770Z,51.325756
2023-04-08T09:58:15.760Z,51.325851
2023-04-08T09:59:15.744Z,51.325817
2023-04-08T10:00:15.726Z,51.325768
2023-04-08T10:01:15.764Z,51.325775
2023-04-08T10:02:15.784Z,51.325741
2023-04-08T10:03:15.937Z,51.325783
2023-04-08T10:04:15.704Z,51.325794
2023-04-08T10:05:15.651Z,51.325783
2023-04-08T10:06:15.669Z,51.325760
2023-04-08T10:07:15.618Z,51.325733
2023-04-08T10:08:15.585Z,51.325779
2023-04-08T10:09:15.569Z,51.325787
2023-04-08T10:10:15.584Z,51.325756
2023-04-08T10:11:15.594Z,51.325729
2023-04-08T10:12:15.532Z,51.325737
2023-04-08T10:13:15.508Z,51.325611
2023-04-08T10:14:15.498Z,51.325649
2023-04-08T10:15:15.474Z,51.325649
2023-04-08T10:16:15.516Z,51.325680
2023-04-08T10:17:15.438Z,51.325710
2023-04-08T10:18:15.421Z,51.325706
2023-04-08T10:19:15.780Z,51.325710
2023-04-08T10:20:15.400Z,51.325699
2023-04-08T10:21:15.408Z,51.325703
2023-04-08T10:22:15.355Z,51.325733
2023-04-08T10:23:15.347Z,51.325706
2023-04-08T10:24:15.338Z,51.325706
2023-04-08T10:25:15.329Z,51.325703
2023-04-08T10:26:15.316Z,51.325726
2023-04-08T10:27:15.260Z,51.325672
2023-04-08T10:28:15.297Z,51.325741
2023-04-08T10:29:15.230Z,51.325760
2023-04-08T10:30:15.219Z,51.325741
2023-04-08T10:31:16.297Z,51.325726
2023-04-08T10:32:15.179Z,51.325745
2023-04-08T10:33:15.182Z,51.325726
2023-04-08T10:34:15.145Z,51.325718
2023-04-08T10:35:15.124Z,51.325764
2023-04-08T10:36:15.249Z,51.325748
2023-04-08T10:37:15.103Z,51.325775
2023-04-08T10:38:15.077Z,51.325733
2023-04-08T10:39:15.101Z,51.325775
2023-04-08T10:40:15.042Z,51.325756
2023-04-08T10:41:15.051Z,51.325733
2023-04-08T10:42:15.007Z,51.325768
2023-04-08T10:43:14.990Z,51.325779
2023-04-08T10:44:15.043Z,51.325764
2023-04-08T10:45:14.971Z,51.325741
2023-04-08T10:46:15.003Z,51.325737
2023-04-08T10:47:14.943Z,51.325741
2023-04-08T10:48:14.911Z,51.325756
2023-04-08T10:49:14.893Z,51.325779
2023-04-08T10:50:14.901Z,51.325760
2023-04-08T10:51:14.904Z,51.325764
2023-04-08T10:52:14.859Z,51.325764
2023-04-08T10:53:14.865Z,51.325745
2023-04-08T10:54:14.817Z,51.325748
2023-04-08T10:55:14.795Z,51.325756
2023-04-08T10:56:14.823Z,51.325764
2023-04-08T10:57:14.754Z,51.325741
2023-04-08T10:58:14.740Z,51.325768
2023-04-08T10:59:14.715Z,51.325745
2023-04-08T11:00:14.714Z,51.325756
2023-04-08T11:01:14.798Z,51.325726
2023-04-08T11:02:14.863Z,51.325737
2023-04-08T11:03:15.821Z,51.325745
2023-04-08T11:04:14.738Z,51.325752
2023-04-08T11:05:14.641Z,51.325771
2023-04-08T11:06:14.660Z,51.325768
2023-04-08T11:07:14.600Z,51.325794
2023-04-08T11:08:14.573Z,51.325775
2023-04-08T11:09:14.593Z,51.325794
2023-04-08T11:10:14.693Z,51.325783
2023-04-08T11:11:14.568Z,51.325771
2023-04-08T11:12:14.506Z,51.325752
2023-04-08T11:13:14.485Z,51.325764
2023-04-08T11:14:14.464Z,51.325748
2023-04-08T11:15:14.454Z,51.325779
2023-04-08T11:16:18.323Z,51.325790
2023-04-08T11:17:15.431Z,51.325779
2023-04-08T11:18:14.419Z,51.325779
2023-04-08T11:19:14.393Z,51.325760
2023-04-08T11:20:14.413Z,51.325752
2023-04-08T11:21:14.395Z,51.325745
2023-04-08T11:22:14.344Z,51.325756
2023-04-08T11:23:14.347Z,51.325775
2023-04-08T11:24:14.306Z,51.325798